LAN4777 SBGR-SBCT
Flight info
| Callsign | LAN4777 |
|---|---|
| Flight time | 0h 41m |
| Altitude | 30000 |
| Route | SOVSI UZ85 RAXIT |
| Aircraft | B77W/H-SDE1E2E3FGHIJ2J3J4J5M1RWXY/LB1D1 |
Departure
| Time | 2026-05-01 07:28 |
|---|---|
| Airport | São Paulo/Guarulhos–Governor André Franco Montoro International Airport (SBGR) |
Arrival
| Time | 2026-05-01 08:10 |
|---|---|
| Airport | Curitiba-Afonso Pena International Airport (SBCT) |
| Time | Latitude | Longitude | Altitude | Speed | Heading |
|---|---|---|---|---|---|
| 2026-05-01 07:23 | -23.42986 | -46.47967 | 2470 ft | 0 kts | 253° |
| 2026-05-01 07:24 | -23.42994 | -46.47997 | 2472 ft | 6 kts | 253° |
| 2026-05-01 07:24 | -23.43013 | -46.48066 | 2473 ft | 15 kts | 253° |
| 2026-05-01 07:25 | -23.43044 | -46.48175 | 2472 ft | 16 kts | 261° |
| 2026-05-01 07:25 | -23.43057 | -46.48293 | 2471 ft | 16 kts | 263° |
| 2026-05-01 07:25 | -23.43064 | -46.48349 | 2470 ft | 0 kts | 261° |
| 2026-05-01 07:25 | -23.43065 | -46.48357 | 2470 ft | 7 kts | 261° |
| 2026-05-01 07:26 | -23.43126 | -46.48413 | 2476 ft | 14 kts | 177° |
| 2026-05-01 07:26 | -23.43223 | -46.48389 | 2473 ft | 15 kts | 164° |
| 2026-05-01 07:26 | -23.43361 | -46.48344 | 2473 ft | 20 kts | 159° |
| 2026-05-01 07:26 | -23.43403 | -46.48251 | 2466 ft | 15 kts | 85° |
| 2026-05-01 07:27 | -23.43398 | -46.48228 | 2472 ft | 0 kts | 77° |
| 2026-05-01 07:27 | -23.43398 | -46.48226 | 2471 ft | 3 kts | 77° |
| 2026-05-01 07:27 | -23.43354 | -46.48056 | 2469 ft | 54 kts | 73° |
| 2026-05-01 07:28 | -23.43169 | -46.47373 | 2469 ft | 131 kts | 74° |
| 2026-05-01 07:28 | -23.42858 | -46.46194 | 2496 ft | 187 kts | 74° |
| 2026-05-01 07:28 | -23.42465 | -46.44788 | 3009 ft | 200 kts | 73° |
| 2026-05-01 07:28 | -23.42052 | -46.43310 | 3751 ft | 204 kts | 73° |
| 2026-05-01 07:29 | -23.41625 | -46.41851 | 4569 ft | 207 kts | 73° |
| 2026-05-01 07:29 | -23.41168 | -46.40329 | 5189 ft | 223 kts | 73° |
| 2026-05-01 07:29 | -23.40703 | -46.38620 | 5648 ft | 240 kts | 73° |
| 2026-05-01 07:29 | -23.40269 | -46.36824 | 6344 ft | 251 kts | 83° |
| 2026-05-01 07:30 | -23.40345 | -46.34857 | 6898 ft | 272 kts | 105° |
| 2026-05-01 07:30 | -23.41022 | -46.32889 | 7675 ft | 282 kts | 110° |
| 2026-05-01 07:30 | -23.41718 | -46.30868 | 8503 ft | 288 kts | 109° |
| 2026-05-01 07:30 | -23.42168 | -46.29506 | 8899 ft | 290 kts | 109° |
| 2026-05-01 07:31 | -23.42917 | -46.27447 | 9178 ft | 297 kts | 119° |
| 2026-05-01 07:31 | -23.48322 | -46.25301 | 9171 ft | 292 kts | 191° |
| 2026-05-01 07:32 | -23.52367 | -46.26155 | 10092 ft | 299 kts | 192° |
| 2026-05-01 07:32 | -23.54319 | -46.26859 | 10770 ft | 299 kts | 213° |
| 2026-05-01 07:33 | -23.56605 | -46.30551 | 12215 ft | 312 kts | 256° |
| 2026-05-01 07:33 | -23.57112 | -46.32972 | 12445 ft | 342 kts | 258° |
| 2026-05-01 07:33 | -23.58099 | -46.38316 | 13759 ft | 369 kts | 259° |
| 2026-05-01 07:34 | -23.58620 | -46.41079 | 14643 ft | 373 kts | 258° |
| 2026-05-01 07:34 | -23.59704 | -46.46634 | 16104 ft | 377 kts | 258° |
| 2026-05-01 07:34 | -23.60259 | -46.49442 | 16195 ft | 382 kts | 258° |
| 2026-05-01 07:35 | -23.60817 | -46.52267 | 16213 ft | 381 kts | 259° |
| 2026-05-01 07:35 | -23.61282 | -46.55106 | 16217 ft | 379 kts | 262° |
| 2026-05-01 07:35 | -23.61671 | -46.57943 | 16212 ft | 378 kts | 262° |
| 2026-05-01 07:35 | -23.62065 | -46.60775 | 16215 ft | 379 kts | 262° |
| 2026-05-01 07:36 | -23.62475 | -46.63615 | 16213 ft | 377 kts | 261° |
| 2026-05-01 07:36 | -23.63184 | -46.66349 | 16203 ft | 377 kts | 245° |
| 2026-05-01 07:36 | -23.64554 | -46.68781 | 16232 ft | 379 kts | 237° |
| 2026-05-01 07:36 | -23.66027 | -46.71189 | 16223 ft | 385 kts | 238° |
| 2026-05-01 07:37 | -23.68919 | -46.76079 | 16202 ft | 382 kts | 239° |
| 2026-05-01 07:37 | -23.70339 | -46.78527 | 16193 ft | 381 kts | 239° |
| 2026-05-01 07:37 | -23.71756 | -46.80965 | 16221 ft | 382 kts | 239° |
| 2026-05-01 07:38 | -23.73199 | -46.83421 | 16930 ft | 386 kts | 239° |
| 2026-05-01 07:38 | -23.74655 | -46.85890 | 17888 ft | 387 kts | 239° |
| 2026-05-01 07:38 | -23.77583 | -46.90861 | 19492 ft | 393 kts | 239° |
| 2026-05-01 07:39 | -23.79066 | -46.93384 | 20222 ft | 397 kts | 239° |
| 2026-05-01 07:39 | -23.80566 | -46.95937 | 20939 ft | 401 kts | 239° |
| 2026-05-01 07:39 | -23.83608 | -47.01122 | 22369 ft | 410 kts | 239° |
| 2026-05-01 07:40 | -23.85150 | -47.03754 | 23093 ft | 413 kts | 239° |
| 2026-05-01 07:40 | -23.86706 | -47.06410 | 23814 ft | 417 kts | 239° |
| 2026-05-01 07:40 | -23.88275 | -47.09088 | 24437 ft | 419 kts | 239° |
| 2026-05-01 07:40 | -23.89849 | -47.11778 | 25094 ft | 421 kts | 239° |
| 2026-05-01 07:41 | -23.91451 | -47.14515 | 25745 ft | 423 kts | 239° |
| 2026-05-01 07:41 | -23.93041 | -47.17235 | 26372 ft | 426 kts | 240° |
| 2026-05-01 07:41 | -23.96244 | -47.22717 | 27763 ft | 427 kts | 240° |
| 2026-05-01 07:42 | -23.97828 | -47.25428 | 28752 ft | 420 kts | 240° |
| 2026-05-01 07:42 | -23.99391 | -47.28106 | 29674 ft | 416 kts | 240° |
| 2026-05-01 07:42 | -24.00944 | -47.30769 | 30139 ft | 414 kts | 240° |
| 2026-05-01 07:43 | -24.04072 | -47.36147 | 30154 ft | 428 kts | 240° |
| 2026-05-01 07:43 | -24.05694 | -47.38939 | 30156 ft | 441 kts | 240° |
| 2026-05-01 07:43 | -24.09076 | -47.44748 | 30150 ft | 461 kts | 239° |
| 2026-05-01 07:44 | -24.13757 | -47.49714 | 30134 ft | 482 kts | 216° |
| 2026-05-01 07:44 | -24.19523 | -47.53514 | 30138 ft | 488 kts | 216° |
| 2026-05-01 07:45 | -24.25299 | -47.57429 | 30128 ft | 488 kts | 216° |
| 2026-05-01 07:45 | -24.31029 | -47.61402 | 30120 ft | 487 kts | 217° |
| 2026-05-01 07:46 | -24.36753 | -47.65384 | 30125 ft | 487 kts | 216° |
| 2026-05-01 07:47 | -24.45055 | -47.71706 | 30125 ft | 480 kts | 225° |
| 2026-05-01 07:47 | -24.49880 | -47.76761 | 30125 ft | 480 kts | 228° |
| 2026-05-01 07:48 | -24.56885 | -47.84164 | 30101 ft | 442 kts | 227° |
| 2026-05-01 07:48 | -24.59090 | -47.86429 | 30104 ft | 425 kts | 227° |
| 2026-05-01 07:48 | -24.61241 | -47.88631 | 29735 ft | 420 kts | 227° |
| 2026-05-01 07:49 | -24.63373 | -47.90816 | 29240 ft | 416 kts | 227° |
| 2026-05-01 07:49 | -24.67574 | -47.95121 | 28221 ft | 410 kts | 227° |
| 2026-05-01 07:49 | -24.69652 | -47.97252 | 27699 ft | 407 kts | 227° |
| 2026-05-01 07:50 | -24.71716 | -47.99368 | 27206 ft | 404 kts | 227° |
| 2026-05-01 07:50 | -24.75806 | -48.03566 | 26221 ft | 400 kts | 226° |
| 2026-05-01 07:50 | -24.77834 | -48.05649 | 25739 ft | 398 kts | 227° |
| 2026-05-01 07:51 | -24.79855 | -48.07726 | 25243 ft | 397 kts | 226° |
| 2026-05-01 07:51 | -24.81869 | -48.09798 | 24749 ft | 395 kts | 226° |
| 2026-05-01 07:51 | -24.83873 | -48.11860 | 24281 ft | 394 kts | 226° |
| 2026-05-01 07:52 | -24.87871 | -48.15976 | 23242 ft | 392 kts | 226° |
| 2026-05-01 07:52 | -24.89854 | -48.18018 | 22733 ft | 389 kts | 226° |
| 2026-05-01 07:52 | -24.91824 | -48.20048 | 22260 ft | 385 kts | 226° |
| 2026-05-01 07:53 | -24.95698 | -48.24043 | 21334 ft | 379 kts | 226° |
| 2026-05-01 07:53 | -24.97590 | -48.26044 | 20883 ft | 374 kts | 231° |
| 2026-05-01 07:53 | -24.99016 | -48.28377 | 20416 ft | 360 kts | 247° |
| 2026-05-01 07:53 | -25.00073 | -48.30894 | 20290 ft | 365 kts | 247° |
| 2026-05-01 07:54 | -25.02283 | -48.35959 | 19790 ft | 365 kts | 246° |
| 2026-05-01 07:55 | -25.05612 | -48.43401 | 18626 ft | 357 kts | 246° |
| 2026-05-01 07:55 | -25.07802 | -48.48292 | 17691 ft | 353 kts | 246° |
| 2026-05-01 07:56 | -25.11041 | -48.55529 | 16291 ft | 348 kts | 245° |
| 2026-05-01 07:56 | -25.13170 | -48.60294 | 15448 ft | 345 kts | 245° |
| 2026-05-01 07:57 | -25.14227 | -48.62662 | 15046 ft | 343 kts | 245° |
| 2026-05-01 07:57 | -25.16325 | -48.67372 | 14241 ft | 340 kts | 245° |
| 2026-05-01 07:58 | -25.18377 | -48.72014 | 13377 ft | 338 kts | 245° |
| 2026-05-01 07:58 | -25.20426 | -48.76653 | 12511 ft | 335 kts | 245° |
| 2026-05-01 07:59 | -25.21780 | -48.81447 | 11399 ft | 323 kts | 267° |
| 2026-05-01 07:59 | -25.21984 | -48.86294 | 10070 ft | 303 kts | 267° |
| 2026-05-01 08:00 | -25.22452 | -48.95019 | 8534 ft | 275 kts | 266° |
| 2026-05-01 08:01 | -25.23709 | -49.01009 | 7643 ft | 270 kts | 244° |
| 2026-05-01 08:01 | -25.24531 | -49.02896 | 7498 ft | 273 kts | 244° |
| 2026-05-01 08:01 | -25.25332 | -49.04760 | 7460 ft | 263 kts | 244° |
| 2026-05-01 08:02 | -25.26881 | -49.08412 | 7478 ft | 267 kts | 245° |
| 2026-05-01 08:02 | -25.27671 | -49.10292 | 7482 ft | 271 kts | 245° |
| 2026-05-01 08:03 | -25.29244 | -49.14051 | 7473 ft | 268 kts | 245° |
| 2026-05-01 08:03 | -25.30023 | -49.15920 | 7468 ft | 267 kts | 245° |
| 2026-05-01 08:03 | -25.31570 | -49.19631 | 7474 ft | 265 kts | 245° |
| 2026-05-01 08:04 | -25.33106 | -49.23322 | 7494 ft | 265 kts | 245° |
| 2026-05-01 08:04 | -25.34590 | -49.27131 | 7091 ft | 272 kts | 245° |
| 2026-05-01 08:05 | -25.36568 | -49.30559 | 6635 ft | 262 kts | 218° |
| 2026-05-01 08:05 | -25.38191 | -49.31374 | 6410 ft | 257 kts | 187° |
| 2026-05-01 08:05 | -25.39931 | -49.31154 | 6193 ft | 252 kts | 158° |
| 2026-05-01 08:06 | -25.42614 | -49.29037 | 5643 ft | 223 kts | 137° |
| 2026-05-01 08:06 | -25.44688 | -49.26737 | 5123 ft | 200 kts | 133° |
| 2026-05-01 08:07 | -25.46500 | -49.24700 | 4617 ft | 169 kts | 133° |
| 2026-05-01 08:07 | -25.48078 | -49.22927 | 4205 ft | 161 kts | 133° |
| 2026-05-01 08:08 | -25.48854 | -49.22056 | 3985 ft | 156 kts | 133° |
| 2026-05-01 08:08 | -25.50357 | -49.20369 | 3560 ft | 155 kts | 134° |
| 2026-05-01 08:09 | -25.51869 | -49.18670 | 3118 ft | 154 kts | 134° |
| 2026-05-01 08:09 | -25.52612 | -49.17836 | 2986 ft | 144 kts | 135° |
| 2026-05-01 08:09 | -25.53205 | -49.17179 | 2994 ft | 75 kts | 135° |
| 2026-05-01 08:10 | -25.53581 | -49.16767 | 2999 ft | 13 kts | 131° |
| 2026-05-01 08:10 | -25.53573 | -49.16782 | 2998 ft | 10 kts | 235° |
| 2026-05-01 08:11 | -25.53610 | -49.16915 | 2999 ft | 0 kts | 273° |
| 2026-05-01 08:11 | -25.53615 | -49.16952 | 2998 ft | 11 kts | 249° |
| 2026-05-01 08:12 | -25.53709 | -49.16954 | 2999 ft | 6 kts | 141° |
| 2026-05-01 08:12 | -25.53760 | -49.16905 | 3000 ft | 6 kts | 151° |
| 2026-05-01 08:12 | -25.53807 | -49.16922 | 3000 ft | 1 kts | 220° |
| 2026-05-01 08:13 | -25.53816 | -49.16930 | 3000 ft | 1 kts | 219° |
| 2026-05-01 08:13 | -25.53820 | -49.16934 | 3000 ft | 0 kts | 220° |